sensor_id;sensor_type;location;lat;lon;timestamp;pressure;altitude;pressure_sealevel;temperature;humidity
84255;BME280;74400;44.692;18.998;2024-03-08T00:00:09;100073.66;;;7.33;77.12
84255;BME280;74400;44.692;18.998;2024-03-08T00:02:38;100070.72;;;7.41;77.16
84255;BME280;74400;44.692;18.998;2024-03-08T00:05:05;100077.41;;;7.43;76.76
84255;BME280;74400;44.692;18.998;2024-03-08T00:07:32;100081.72;;;7.43;77.00
84255;BME280;74400;44.692;18.998;2024-03-08T00:09:57;100077.19;;;7.48;77.01
84255;BME280;74400;44.692;18.998;2024-03-08T00:12:23;100073.94;;;7.44;77.13
84255;BME280;74400;44.692;18.998;2024-03-08T00:14:51;100077.41;;;7.43;76.99
84255;BME280;74400;44.692;18.998;2024-03-08T00:17:17;100077.25;;;7.46;76.86
84255;BME280;74400;44.692;18.998;2024-03-08T00:19:42;100070.41;;;7.47;76.28
84255;BME280;74400;44.692;18.998;2024-03-08T00:22:08;100074.84;;;7.43;77.20
84255;BME280;74400;44.692;18.998;2024-03-08T00:24:35;100082.66;;;7.40;76.47
84255;BME280;74400;44.692;18.998;2024-03-08T00:27:01;100076.44;;;7.46;76.85
84255;BME280;74400;44.692;18.998;2024-03-08T00:29:27;100079.97;;;7.43;76.67
84255;BME280;74400;44.692;18.998;2024-03-08T00:31:53;100072.31;;;7.43;76.58
84255;BME280;74400;44.692;18.998;2024-03-08T00:34:18;100069.81;;;7.42;75.19
84255;BME280;74400;44.692;18.998;2024-03-08T00:36:44;100074.56;;;7.32;75.44
84255;BME280;74400;44.692;18.998;2024-03-08T00:39:10;100066.56;;;7.21;76.70
84255;BME280;74400;44.692;18.998;2024-03-08T00:41:37;100067.47;;;7.20;76.91
84255;BME280;74400;44.692;18.998;2024-03-08T00:44:03;100070.72;;;7.23;76.63
84255;BME280;74400;44.692;18.998;2024-03-08T00:46:30;100068.00;;;7.26;77.10
84255;BME280;74400;44.692;18.998;2024-03-08T00:48:57;100063.06;;;7.23;76.74
84255;BME280;74400;44.692;18.998;2024-03-08T00:51:22;100067.94;;;7.11;77.19
84255;BME280;74400;44.692;18.998;2024-03-08T00:53:48;100067.13;;;7.10;76.69
84255;BME280;74400;44.692;18.998;2024-03-08T00:56:14;100068.47;;;7.17;76.94
84255;BME280;74400;44.692;18.998;2024-03-08T00:58:39;100073.59;;;7.17;76.55
84255;BME280;74400;44.692;18.998;2024-03-08T01:01:05;100062.44;;;7.18;76.75
84255;BME280;74400;44.692;18.998;2024-03-08T01:03:31;100070.19;;;7.17;76.11
84255;BME280;74400;44.692;18.998;2024-03-08T01:05:57;100063.50;;;7.14;75.50
84255;BME280;74400;44.692;18.998;2024-03-08T01:08:23;100063.56;;;7.13;75.96
84255;BME280;74400;44.692;18.998;2024-03-08T01:10:49;100066.03;;;7.14;76.22
84255;BME280;74400;44.692;18.998;2024-03-08T01:13:16;100066.03;;;7.14;75.80
84255;BME280;74400;44.692;18.998;2024-03-08T01:15:41;100066.81;;;7.16;75.63
84255;BME280;74400;44.692;18.998;2024-03-08T01:18:07;100062.16;;;7.24;75.51
84255;BME280;74400;44.692;18.998;2024-03-08T01:20:33;100063.78;;;7.25;74.25
84255;BME280;74400;44.692;18.998;2024-03-08T01:22:58;100065.91;;;7.17;75.35
84255;BME280;74400;44.692;18.998;2024-03-08T01:25:24;100068.91;;;7.08;74.68
84255;BME280;74400;44.692;18.998;2024-03-08T01:27:50;100063.66;;;7.11;75.54
84255;BME280;74400;44.692;18.998;2024-03-08T01:30:15;100061.75;;;7.15;74.85
84255;BME280;74400;44.692;18.998;2024-03-08T01:32:43;100073.59;;;7.17;74.75
84255;BME280;74400;44.692;18.998;2024-03-08T01:35:09;100069.09;;;7.22;74.13
84255;BME280;74400;44.692;18.998;2024-03-08T01:37:36;100067.56;;;7.18;74.81
84255;BME280;74400;44.692;18.998;2024-03-08T01:40:02;100065.09;;;7.17;74.90
84255;BME280;74400;44.692;18.998;2024-03-08T01:42:28;100070.13;;;7.18;73.94
84255;BME280;74400;44.692;18.998;2024-03-08T01:44:54;100061.19;;;7.10;73.81
84255;BME280;74400;44.692;18.998;2024-03-08T01:47:21;100069.28;;;7.00;75.41
84255;BME280;74400;44.692;18.998;2024-03-08T01:49:50;100064.97;;;7.01;75.50
84255;BME280;74400;44.692;18.998;2024-03-08T01:52:17;100060.56;;;7.04;75.33
84255;BME280;74400;44.692;18.998;2024-03-08T01:54:46;100066.78;;;6.99;75.65
84255;BME280;74400;44.692;18.998;2024-03-08T01:57:12;100062.44;;;7.01;74.31
84255;BME280;74400;44.692;18.998;2024-03-08T01:59:39;100059.34;;;6.94;74.90
84255;BME280;74400;44.692;18.998;2024-03-08T02:02:06;100067.09;;;6.93;74.94
84255;BME280;74400;44.692;18.998;2024-03-08T02:04:34;100061.16;;;6.92;74.79
84255;BME280;74400;44.692;18.998;2024-03-08T02:07:01;100063.88;;;6.89;75.66
84255;BME280;74400;44.692;18.998;2024-03-08T02:09:27;100061.31;;;6.89;75.83
84255;BME280;74400;44.692;18.998;2024-03-08T02:11:54;100059.94;;;6.99;75.17
84255;BME280;74400;44.692;18.998;2024-03-08T02:14:20;100061.38;;;7.05;74.84
84255;BME280;74400;44.692;18.998;2024-03-08T02:16:46;100063.50;;;6.97;74.79
84255;BME280;74400;44.692;18.998;2024-03-08T02:19:11;100064.75;;;6.88;74.95
84255;BME280;74400;44.692;18.998;2024-03-08T02:21:37;100065.72;;;6.86;76.15
84255;BME280;74400;44.692;18.998;2024-03-08T02:24:04;100058.81;;;6.88;75.38
84255;BME280;74400;44.692;18.998;2024-03-08T02:26:30;100062.25;;;6.87;74.94
84255;BME280;74400;44.692;18.998;2024-03-08T02:28:56;100068.00;;;6.92;74.15
84255;BME280;74400;44.692;18.998;2024-03-08T02:31:21;100066.84;;;6.80;74.78
84255;BME280;74400;44.692;18.998;2024-03-08T02:33:47;100066.19;;;6.76;75.78
84255;BME280;74400;44.692;18.998;2024-03-08T02:38:39;100067.97;;;6.74;75.24
84255;BME280;74400;44.692;18.998;2024-03-08T02:41:07;100069.16;;;6.67;75.62
84255;BME280;74400;44.692;18.998;2024-03-08T02:43:34;100070.50;;;6.74;76.18
84255;BME280;74400;44.692;18.998;2024-03-08T02:46:00;100070.31;;;6.79;76.44
84255;BME280;74400;44.692;18.998;2024-03-08T02:48:25;100067.66;;;6.81;75.97
84255;BME280;74400;44.692;18.998;2024-03-08T02:50:52;100066.03;;;6.79;75.63
84255;BME280;74400;44.692;18.998;2024-03-08T02:53:17;100066.75;;;6.82;76.16
84255;BME280;74400;44.692;18.998;2024-03-08T02:55:44;100069.31;;;6.82;76.66
84255;BME280;74400;44.692;18.998;2024-03-08T02:58:10;100071.53;;;6.89;75.48
84255;BME280;74400;44.692;18.998;2024-03-08T03:00:36;100067.91;;;6.93;75.66
84255;BME280;74400;44.692;18.998;2024-03-08T03:03:03;100066.47;;;6.88;75.54
84255;BME280;74400;44.692;18.998;2024-03-08T03:05:29;100074.00;;;6.91;75.68
84255;BME280;74400;44.692;18.998;2024-03-08T03:07:55;100073.53;;;6.83;75.68
84255;BME280;74400;44.692;18.998;2024-03-08T03:10:21;100067.97;;;6.74;75.90
84255;BME280;74400;44.692;18.998;2024-03-08T03:12:47;100068.19;;;6.70;77.17
84255;BME280;74400;44.692;18.998;2024-03-08T03:15:17;100070.59;;;6.73;76.91
84255;BME280;74400;44.692;18.998;2024-03-08T03:17:50;100069.16;;;6.67;77.12
84255;BME280;74400;44.692;18.998;2024-03-08T03:20:19;100070.06;;;6.66;76.47
84255;BME280;74400;44.692;18.998;2024-03-08T03:23:06;100072.72;;;6.63;77.43
84255;BME280;74400;44.692;18.998;2024-03-08T03:25:34;100071.69;;;6.67;76.93
84255;BME280;74400;44.692;18.998;2024-03-08T03:28:04;100072.44;;;6.69;77.30
84255;BME280;74400;44.692;18.998;2024-03-08T03:30:30;100075.16;;;6.66;76.39
84255;BME280;74400;44.692;18.998;2024-03-08T03:33:00;100071.03;;;6.64;76.89
84255;BME280;74400;44.692;18.998;2024-03-08T03:35:26;100074.19;;;6.50;78.02
84255;BME280;74400;44.692;18.998;2024-03-08T03:37:52;100074.63;;;6.41;78.00
84255;BME280;74400;44.692;18.998;2024-03-08T03:40:28;100074.63;;;6.41;78.18
84255;BME280;74400;44.692;18.998;2024-03-08T03:42:54;100072.25;;;6.38;78.98
84255;BME280;74400;44.692;18.998;2024-03-08T03:45:20;100076.72;;;6.33;78.54
84255;BME280;74400;44.692;18.998;2024-03-08T03:47:46;100073.00;;;6.21;78.83
84255;BME280;74400;44.692;18.998;2024-03-08T03:50:12;100075.66;;;6.18;79.04
84255;BME280;74400;44.692;18.998;2024-03-08T03:52:37;100072.84;;;6.24;78.86
84255;BME280;74400;44.692;18.998;2024-03-08T03:55:04;100069.25;;;6.28;78.53
84255;BME280;74400;44.692;18.998;2024-03-08T03:57:30;100069.88;;;6.33;78.01
84255;BME280;74400;44.692;18.998;2024-03-08T03:59:56;100065.13;;;6.26;78.12
84255;BME280;74400;44.692;18.998;2024-03-08T04:02:24;100073.88;;;6.20;78.58
84255;BME280;74400;44.692;18.998;2024-03-08T04:04:54;100074.72;;;6.20;78.21
84255;BME280;74400;44.692;18.998;2024-03-08T04:07:20;100076.44;;;6.20;78.11
84255;BME280;74400;44.692;18.998;2024-03-08T04:09:46;100071.25;;;6.21;78.54
84255;BME280;74400;44.692;18.998;2024-03-08T04:12:12;100074.09;;;6.34;78.74
84255;BME280;74400;44.692;18.998;2024-03-08T04:14:42;100080.09;;;6.33;77.68
84255;BME280;74400;44.692;18.998;2024-03-08T04:17:08;100077.34;;;6.38;78.62
84255;BME280;74400;44.692;18.998;2024-03-08T04:19:38;100077.38;;;6.36;78.03
84255;BME280;74400;44.692;18.998;2024-03-08T04:22:05;100077.19;;;6.22;77.40
84255;BME280;74400;44.692;18.998;2024-03-08T04:24:31;100078.78;;;6.24;78.10
84255;BME280;74400;44.692;18.998;2024-03-08T04:26:56;100078.38;;;6.34;77.95
84255;BME280;74400;44.692;18.998;2024-03-08T04:29:23;100083.69;;;6.29;77.95
84255;BME280;74400;44.692;18.998;2024-03-08T04:31:48;100080.56;;;6.22;78.01
84255;BME280;74400;44.692;18.998;2024-03-08T04:34:14;100084.59;;;6.28;77.48
84255;BME280;74400;44.692;18.998;2024-03-08T04:36:40;100078.44;;;6.32;77.11
84255;BME280;74400;44.692;18.998;2024-03-08T04:39:05;100080.38;;;6.27;77.77
84255;BME280;74400;44.692;18.998;2024-03-08T04:41:31;100085.28;;;6.32;77.22
84255;BME280;74400;44.692;18.998;2024-03-08T04:43:59;100089.34;;;6.36;77.61
84255;BME280;74400;44.692;18.998;2024-03-08T04:46:26;100085.41;;;6.29;77.24
84255;BME280;74400;44.692;18.998;2024-03-08T04:48:53;100089.63;;;6.30;78.42
84255;BME280;74400;44.692;18.998;2024-03-08T04:51:19;100087.84;;;6.32;78.35
84255;BME280;74400;44.692;18.998;2024-03-08T04:53:45;100083.56;;;6.32;78.01
84255;BME280;74400;44.692;18.998;2024-03-08T04:56:10;100089.69;;;6.28;78.05
84255;BME280;74400;44.692;18.998;2024-03-08T04:58:36;100079.91;;;6.38;77.52
84255;BME280;74400;44.692;18.998;2024-03-08T05:01:02;100089.22;;;6.39;77.43
84255;BME280;74400;44.692;18.998;2024-03-08T05:03:28;100084.56;;;6.47;76.65
84255;BME280;74400;44.692;18.998;2024-03-08T05:05:53;100078.72;;;6.45;77.27
84255;BME280;74400;44.692;18.998;2024-03-08T05:08:19;100083.00;;;6.44;77.99
84255;BME280;74400;44.692;18.998;2024-03-08T05:10:45;100083.75;;;6.46;77.72
84255;BME280;74400;44.692;18.998;2024-03-08T05:13:12;100083.69;;;6.48;77.04
84255;BME280;74400;44.692;18.998;2024-03-08T05:15:38;100084.09;;;6.39;76.51
84255;BME280;74400;44.692;18.998;2024-03-08T05:18:05;100095.53;;;6.30;76.95
84255;BME280;74400;44.692;18.998;2024-03-08T05:20:30;100092.78;;;6.35;77.03
84255;BME280;74400;44.692;18.998;2024-03-08T05:22:56;100097.78;;;6.38;77.72
84255;BME280;74400;44.692;18.998;2024-03-08T05:25:25;100097.00;;;6.36;77.65
84255;BME280;74400;44.692;18.998;2024-03-08T05:27:52;100099.72;;;6.33;78.14
84255;BME280;74400;44.692;18.998;2024-03-08T05:30:18;100099.81;;;6.30;77.83
84255;BME280;74400;44.692;18.998;2024-03-08T05:32:43;100100.72;;;6.29;78.00
84255;BME280;74400;44.692;18.998;2024-03-08T05:35:12;100098.09;;;6.30;78.22
84255;BME280;74400;44.692;18.998;2024-03-08T05:37:38;100111.44;;;6.37;78.30
84255;BME280;74400;44.692;18.998;2024-03-08T05:40:05;100108.94;;;6.54;76.89
84255;BME280;74400;44.692;18.998;2024-03-08T05:42:35;100110.94;;;6.47;77.79
84255;BME280;74400;44.692;18.998;2024-03-08T05:45:02;100115.03;;;6.33;77.86
84255;BME280;74400;44.692;18.998;2024-03-08T05:47:28;100113.50;;;6.29;78.13
84255;BME280;74400;44.692;18.998;2024-03-08T05:49:54;100112.81;;;6.25;78.50
84255;BME280;74400;44.692;18.998;2024-03-08T05:52:20;100107.91;;;6.20;78.47
84255;BME280;74400;44.692;18.998;2024-03-08T05:54:46;100112.19;;;6.20;78.11
84255;BME280;74400;44.692;18.998;2024-03-08T05:59:38;100122.44;;;6.39;77.99
84255;BME280;74400;44.692;18.998;2024-03-08T06:02:03;100119.38;;;6.49;77.84
84255;BME280;74400;44.692;18.998;2024-03-08T06:04:30;100122.53;;;6.73;76.48
84255;BME280;74400;44.692;18.998;2024-03-08T06:06:57;100124.59;;;6.84;75.40
84255;BME280;74400;44.692;18.998;2024-03-08T06:09:26;100119.59;;;7.00;74.69
84255;BME280;74400;44.692;18.998;2024-03-08T06:11:52;100127.00;;;7.23;74.70
84255;BME280;74400;44.692;18.998;2024-03-08T06:14:19;100125.44;;;7.38;73.77
84255;BME280;74400;44.692;18.998;2024-03-08T06:16:45;100120.22;;;7.74;72.50
84255;BME280;74400;44.692;18.998;2024-03-08T06:19:12;100125.31;;;7.92;71.45
84255;BME280;74400;44.692;18.998;2024-03-08T06:21:39;100120.56;;;8.17;70.01
84255;BME280;74400;44.692;18.998;2024-03-08T06:24:05;100126.56;;;8.33;69.31
84255;BME280;74400;44.692;18.998;2024-03-08T06:26:31;100127.94;;;8.72;66.96
84255;BME280;74400;44.692;18.998;2024-03-08T06:28:57;100131.72;;;8.97;65.90
84255;BME280;74400;44.692;18.998;2024-03-08T06:31:23;100133.63;;;9.09;64.99
84255;BME280;74400;44.692;18.998;2024-03-08T06:33:48;100127.22;;;9.16;63.87
84255;BME280;74400;44.692;18.998;2024-03-08T06:36:19;100133.91;;;9.18;64.69
84255;BME280;74400;44.692;18.998;2024-03-08T06:38:50;100139.16;;;9.17;64.93
84255;BME280;74400;44.692;18.998;2024-03-08T06:41:16;100142.41;;;9.05;64.99
84255;BME280;74400;44.692;18.998;2024-03-08T06:43:46;100142.97;;;9.10;64.73
84255;BME280;74400;44.692;18.998;2024-03-08T06:46:12;100138.81;;;9.07;64.87
84255;BME280;74400;44.692;18.998;2024-03-08T06:48:41;100140.97;;;9.15;64.54
84255;BME280;74400;44.692;18.998;2024-03-08T06:51:06;100145.88;;;9.04;65.64
84255;BME280;74400;44.692;18.998;2024-03-08T06:53:32;100148.25;;;9.07;64.46
84255;BME280;74400;44.692;18.998;2024-03-08T06:56:01;100147.78;;;9.00;64.19
84255;BME280;74400;44.692;18.998;2024-03-08T06:58:27;100147.38;;;8.92;63.94
84255;BME280;74400;44.692;18.998;2024-03-08T07:00:53;100148.03;;;8.64;65.37
84255;BME280;74400;44.692;18.998;2024-03-08T07:03:19;100146.28;;;8.49;66.19
84255;BME280;74400;44.692;18.998;2024-03-08T07:05:45;100150.53;;;8.32;66.53
84255;BME280;74400;44.692;18.998;2024-03-08T07:08:11;100148.72;;;8.34;67.58
84255;BME280;74400;44.692;18.998;2024-03-08T07:10:39;100145.63;;;8.45;67.35
84255;BME280;74400;44.692;18.998;2024-03-08T07:13:07;100148.69;;;8.52;66.92
84255;BME280;74400;44.692;18.998;2024-03-08T07:15:33;100152.81;;;8.54;66.49
84255;BME280;74400;44.692;18.998;2024-03-08T07:17:58;100156.41;;;8.83;65.19
84255;BME280;74400;44.692;18.998;2024-03-08T07:20:25;100155.50;;;8.84;65.57
84255;BME280;74400;44.692;18.998;2024-03-08T07:22:51;100161.34;;;8.86;64.63
84255;BME280;74400;44.692;18.998;2024-03-08T07:25:17;100156.97;;;8.73;65.26
84255;BME280;74400;44.692;18.998;2024-03-08T07:27:49;100152.44;;;8.78;65.17
84255;BME280;74400;44.692;18.998;2024-03-08T07:30:15;100151.09;;;8.86;65.27
84255;BME280;74400;44.692;18.998;2024-03-08T07:32:59;100148.44;;;8.72;65.71
84255;BME280;74400;44.692;18.998;2024-03-08T07:35:28;100150.34;;;8.84;65.10
84255;BME280;74400;44.692;18.998;2024-03-08T07:37:54;100154.72;;;8.66;64.89
84255;BME280;74400;44.692;18.998;2024-03-08T07:40:25;100147.28;;;8.62;66.06
84255;BME280;74400;44.692;18.998;2024-03-08T07:42:51;100151.94;;;8.71;65.08
84255;BME280;74400;44.692;18.998;2024-03-08T07:45:17;100151.00;;;8.72;64.75
84255;BME280;74400;44.692;18.998;2024-03-08T07:47:43;100150.28;;;8.70;65.29
84255;BME280;74400;44.692;18.998;2024-03-08T07:50:09;100153.50;;;8.74;65.44
84255;BME280;74400;44.692;18.998;2024-03-08T07:52:35;100152.34;;;8.63;65.87
84255;BME280;74400;44.692;18.998;2024-03-08T07:55:05;100148.44;;;8.56;65.96
84255;BME280;74400;44.692;18.998;2024-03-08T07:57:31;100148.84;;;8.49;66.61
84255;BME280;74400;44.692;18.998;2024-03-08T07:59:57;100148.19;;;8.61;65.47
84255;BME280;74400;44.692;18.998;2024-03-08T08:02:23;100151.44;;;8.64;65.04
84255;BME280;74400;44.692;18.998;2024-03-08T08:04:49;100156.38;;;8.67;65.25
84255;BME280;74400;44.692;18.998;2024-03-08T08:07:14;100161.03;;;8.77;66.64
84255;BME280;74400;44.692;18.998;2024-03-08T08:09:41;100156.81;;;8.91;65.09
84255;BME280;74400;44.692;18.998;2024-03-08T08:12:11;100164.25;;;8.80;65.12
84255;BME280;74400;44.692;18.998;2024-03-08T08:14:38;100156.41;;;8.83;64.73
84255;BME280;74400;44.692;18.998;2024-03-08T08:17:04;100162.84;;;8.75;64.87
84255;BME280;74400;44.692;18.998;2024-03-08T08:19:30;100158.31;;;8.64;65.82
84255;BME280;74400;44.692;18.998;2024-03-08T08:21:57;100165.00;;;8.51;64.76
84255;BME280;74400;44.692;18.998;2024-03-08T08:24:23;100162.25;;;8.54;65.27
84255;BME280;74400;44.692;18.998;2024-03-08T08:26:49;100164.63;;;8.41;65.37
84255;BME280;74400;44.692;18.998;2024-03-08T08:29:15;100163.41;;;8.48;65.18
84255;BME280;74400;44.692;18.998;2024-03-08T08:31:41;100159.38;;;8.60;65.74
84255;BME280;74400;44.692;18.998;2024-03-08T08:34:09;100162.94;;;8.73;64.68
84255;BME280;74400;44.692;18.998;2024-03-08T08:36:37;100167.00;;;8.77;64.17
84255;BME280;74400;44.692;18.998;2024-03-08T08:39:05;100163.59;;;8.77;63.75
84255;BME280;74400;44.692;18.998;2024-03-08T08:41:36;100168.06;;;8.73;64.02
84255;BME280;74400;44.692;18.998;2024-03-08T08:44:02;100166.72;;;8.66;64.53
84255;BME280;74400;44.692;18.998;2024-03-08T08:46:28;100167.88;;;8.60;65.59
84255;BME280;74400;44.692;18.998;2024-03-08T08:48:54;100166.06;;;8.62;64.92
84255;BME280;74400;44.692;18.998;2024-03-08T08:51:19;100168.47;;;8.81;64.81
84255;BME280;74400;44.692;18.998;2024-03-08T08:53:45;100171.53;;;8.88;63.72
84255;BME280;74400;44.692;18.998;2024-03-08T08:56:19;100163.34;;;8.81;64.91
84255;BME280;74400;44.692;18.998;2024-03-08T08:58:44;100168.22;;;8.70;64.02
84255;BME280;74400;44.692;18.998;2024-03-08T09:01:10;100167.00;;;8.77;64.72
84255;BME280;74400;44.692;18.998;2024-03-08T09:03:37;100163.97;;;9.01;62.90
84255;BME280;74400;44.692;18.998;2024-03-08T09:06:06;100158.03;;;9.16;61.92
84255;BME280;74400;44.692;18.998;2024-03-08T09:08:36;100158.47;;;9.08;61.82
84255;BME280;74400;44.692;18.998;2024-03-08T09:11:01;100165.66;;;9.02;62.87
84255;BME280;74400;44.692;18.998;2024-03-08T09:13:27;100168.56;;;8.95;62.69
84255;BME280;74400;44.692;18.998;2024-03-08T09:15:53;100163.91;;;8.86;61.75
84255;BME280;74400;44.692;18.998;2024-03-08T09:18:18;100164.25;;;8.96;61.61
84255;BME280;74400;44.692;18.998;2024-03-08T09:20:45;100167.72;;;8.95;62.12
84255;BME280;74400;44.692;18.998;2024-03-08T09:23:10;100161.19;;;8.89;62.39
84255;BME280;74400;44.692;18.998;2024-03-08T09:25:36;100166.34;;;8.89;61.64
84255;BME280;74400;44.692;18.998;2024-03-08T09:28:04;100163.34;;;8.81;62.54
84255;BME280;74400;44.692;18.998;2024-03-08T09:30:31;100163.66;;;8.75;63.12
84255;BME280;74400;44.692;18.998;2024-03-08T09:32:56;100159.28;;;8.77;63.79
84255;BME280;74400;44.692;18.998;2024-03-08T09:35:22;100161.88;;;8.77;63.86
84255;BME280;74400;44.692;18.998;2024-03-08T09:37:48;100163.00;;;8.87;62.70
84255;BME280;74400;44.692;18.998;2024-03-08T09:40:16;100161.88;;;8.77;63.73
84255;BME280;74400;44.692;18.998;2024-03-08T09:42:48;100155.41;;;8.86;63.74
84255;BME280;74400;44.692;18.998;2024-03-08T09:45:14;100163.69;;;8.91;63.11
84255;BME280;74400;44.692;18.998;2024-03-08T09:47:43;100159.88;;;8.98;63.46
84255;BME280;74400;44.692;18.998;2024-03-08T09:50:10;100164.56;;;9.21;62.88
84255;BME280;74400;44.692;18.998;2024-03-08T09:52:41;100163.78;;;9.35;62.82
84255;BME280;74400;44.692;18.998;2024-03-08T09:55:12;100173.56;;;9.13;62.52
84255;BME280;74400;44.692;18.998;2024-03-08T09:57:38;100171.94;;;9.12;62.37
84255;BME280;74400;44.692;18.998;2024-03-08T10:00:05;100175.94;;;9.02;63.17
84255;BME280;74400;44.692;18.998;2024-03-08T10:02:39;100171.00;;;9.13;63.37
84255;BME280;74400;44.692;18.998;2024-03-08T10:05:05;100172.50;;;9.17;62.74
84255;BME280;74400;44.692;18.998;2024-03-08T10:07:30;100178.28;;;9.36;62.18
84255;BME280;74400;44.692;18.998;2024-03-08T10:09:56;100172.41;;;9.34;62.99
84255;BME280;74400;44.692;18.998;2024-03-08T10:12:22;100176.41;;;9.54;61.96
84255;BME280;74400;44.692;18.998;2024-03-08T10:14:47;100166.44;;;9.64;62.76
84255;BME280;74400;44.692;18.998;2024-03-08T10:17:13;100167.94;;;9.82;61.92
84255;BME280;74400;44.692;18.998;2024-03-08T10:19:49;100169.97;;;9.91;61.03
84255;BME280;74400;44.692;18.998;2024-03-08T10:22:15;100165.94;;;9.87;60.91
84255;BME280;74400;44.692;18.998;2024-03-08T10:24:41;100168.72;;;9.98;59.71
84255;BME280;74400;44.692;18.998;2024-03-08T10:27:07;100166.13;;;9.98;57.99
84255;BME280;74400;44.692;18.998;2024-03-08T10:29:33;100161.00;;;9.98;59.32
84255;BME280;74400;44.692;18.998;2024-03-08T10:31:59;100152.94;;;10.19;58.49
84255;BME280;74400;44.692;18.998;2024-03-08T10:34:25;100154.44;;;10.37;59.26
84255;BME280;74400;44.692;18.998;2024-03-08T10:36:51;100156.69;;;10.42;59.46
84255;BME280;74400;44.692;18.998;2024-03-08T10:39:24;100150.72;;;10.55;58.19
84255;BME280;74400;44.692;18.998;2024-03-08T10:41:58;100155.88;;;10.41;59.46
84255;BME280;74400;44.692;18.998;2024-03-08T10:49:51;100151.50;;;10.84;57.10
84255;BME280;74400;44.692;18.998;2024-03-08T10:52:18;100146.81;;;10.77;56.42
84255;BME280;74400;44.692;18.998;2024-03-08T10:54:44;100144.81;;;10.82;58.32
84255;BME280;74400;44.692;18.998;2024-03-08T10:57:12;100147.50;;;10.93;57.84
84255;BME280;74400;44.692;18.998;2024-03-08T10:59:38;100139.75;;;11.20;57.10
84255;BME280;74400;44.692;18.998;2024-03-08T11:02:05;100139.81;;;11.33;56.00
84255;BME280;74400;44.692;18.998;2024-03-08T11:04:31;100141.25;;;11.37;56.28
84255;BME280;74400;44.692;18.998;2024-03-08T11:07:02;100137.69;;;11.12;55.96
84255;BME280;74400;44.692;18.998;2024-03-08T11:14:43;100130.94;;;11.24;56.52
84255;BME280;74400;44.692;18.998;2024-03-08T11:17:09;100130.50;;;11.18;57.16
84255;BME280;74400;44.692;18.998;2024-03-08T11:19:36;100135.28;;;11.36;57.18
84255;BME280;74400;44.692;18.998;2024-03-08T11:22:03;100125.69;;;11.26;57.61
84255;BME280;74400;44.692;18.998;2024-03-08T11:24:37;100127.38;;;11.12;57.59
84255;BME280;74400;44.692;18.998;2024-03-08T11:27:06;100123.66;;;11.04;57.39
84255;BME280;74400;44.692;18.998;2024-03-08T11:29:36;100128.03;;;11.16;57.08
84255;BME280;74400;44.692;18.998;2024-03-08T11:34:41;100108.13;;;11.58;56.71
84255;BME280;74400;44.692;18.998;2024-03-08T11:39:45;100112.34;;;11.59;55.35
84255;BME280;74400;44.692;18.998;2024-03-08T11:42:11;100114.09;;;11.58;55.00
84255;BME280;74400;44.692;18.998;2024-03-08T11:44:37;100115.72;;;11.34;55.74
84255;BME280;74400;44.692;18.998;2024-03-08T11:47:08;100117.19;;;11.11;56.48
84255;BME280;74400;44.692;18.998;2024-03-08T11:49:36;100109.19;;;11.16;55.97
84255;BME280;74400;44.692;18.998;2024-03-08T11:52:01;100102.31;;;11.29;56.41
84255;BME280;74400;44.692;18.998;2024-03-08T11:54:29;100099.09;;;11.25;56.51
84255;BME280;74400;44.692;18.998;2024-03-08T11:56:56;100103.25;;;11.28;57.09
84255;BME280;74400;44.692;18.998;2024-03-08T11:59:29;100095.88;;;11.74;55.20
84255;BME280;74400;44.692;18.998;2024-03-08T12:02:06;100100.78;;;11.39;55.53
84255;BME280;74400;44.692;18.998;2024-03-08T12:04:32;100095.31;;;11.31;56.22
84255;BME280;74400;44.692;18.998;2024-03-08T12:07:01;100096.66;;;11.36;55.98
84255;BME280;74400;44.692;18.998;2024-03-08T12:09:30;100093.00;;;11.53;54.82
84255;BME280;74400;44.692;18.998;2024-03-08T12:11:58;100091.44;;;11.63;55.21
84255;BME280;74400;44.692;18.998;2024-03-08T12:14:24;100091.44;;;11.63;55.09
84255;BME280;74400;44.692;18.998;2024-03-08T12:16:51;100092.47;;;11.74;54.56
84255;BME280;74400;44.692;18.998;2024-03-08T12:19:17;100087.75;;;11.93;54.15
84255;BME280;74400;44.692;18.998;2024-03-08T12:21:43;100092.16;;;11.91;54.75
84255;BME280;74400;44.692;18.998;2024-03-08T12:24:16;100092.78;;;11.69;55.40
84255;BME280;74400;44.692;18.998;2024-03-08T12:26:45;100084.34;;;11.67;54.62
84255;BME280;74400;44.692;18.998;2024-03-08T12:31:39;100079.50;;;12.01;54.94
84255;BME280;74400;44.692;18.998;2024-03-08T12:34:04;100071.63;;;12.15;54.23
84255;BME280;74400;44.692;18.998;2024-03-08T12:36:30;100068.88;;;12.05;54.69
84255;BME280;74400;44.692;18.998;2024-03-08T12:38:56;100070.13;;;11.87;54.09
84255;BME280;74400;44.692;18.998;2024-03-08T12:41:22;100059.38;;;11.42;55.16
84255;BME280;74400;44.692;18.998;2024-03-08T12:43:48;100059.50;;;11.41;56.58
84255;BME280;74400;44.692;18.998;2024-03-08T12:46:18;100057.84;;;11.65;55.07
84255;BME280;74400;44.692;18.998;2024-03-08T12:48:46;100057.84;;;11.65;55.19
84255;BME280;74400;44.692;18.998;2024-03-08T12:53:39;100056.66;;;11.18;56.04
84255;BME280;74400;44.692;18.998;2024-03-08T12:56:10;100056.78;;;11.17;56.67
84255;BME280;74400;44.692;18.998;2024-03-08T12:58:36;100056.66;;;11.05;55.91
84255;BME280;74400;44.692;18.998;2024-03-08T13:01:05;100046.06;;;11.10;56.06
84255;BME280;74400;44.692;18.998;2024-03-08T13:03:36;100052.03;;;11.10;56.70
84255;BME280;74400;44.692;18.998;2024-03-08T13:06:05;100059.63;;;10.99;56.88
84255;BME280;74400;44.692;18.998;2024-03-08T13:08:37;100057.78;;;11.01;56.56
84255;BME280;74400;44.692;18.998;2024-03-08T13:11:07;100052.59;;;10.89;55.96